CheckWX is a tool to help pilots better visualize weather data.  It is not intended as a substitute for an official pre-flight weather briefing.

13:06:34 UTC

KSDC METAR
Williamson-Sodus Airport
Williamson/Sodus, New York, USA
Current

32 mins ago

KSDC 161235Z AUTO 05003KT 3SM BR OVC002 12/11 A2986 RMK AO2
Observed
Jun-16 @ 12:35 UTC
Wind
  • 050° at 3 KTS
Visibility
3 SM
Flight Rules
LIFR
Conditions
Mist
Cloud Levels
  • Overcast at 200' AGL
Temperature
12°C / 54°F
Dewpoint
11°C / 52°F
Humidity
94%
Altimeter
29.86" Hg
Pressure
1011.22 hPa
Previous

52 mins ago

KSDC 161215Z AUTO 05004KT 4SM BR OVC002 12/11 A2986 RMK AO2
Observed
Jun-16 @ 12:15 UTC
Wind
  • 050° at 4 KTS
Visibility
4 SM
Flight Rules
LIFR
Conditions
Mist
Cloud Levels
  • Overcast at 200' AGL
Temperature
12°C / 54°F
Dewpoint
11°C / 52°F
Humidity
94%
Altimeter
29.86" Hg
Pressure
1011.22 hPa
Previous

1 hour ago

KSDC 161155Z AUTO 04003KT 3SM BR OVC002 12/11 A2986 RMK AO2
Observed
Jun-16 @ 11:55 UTC
Wind
  • 040° at 3 KTS
Visibility
3 SM
Flight Rules
LIFR
Conditions
Mist
Cloud Levels
  • Overcast at 200' AGL
Temperature
12°C / 54°F
Dewpoint
11°C / 52°F
Humidity
94%
Altimeter
29.86" Hg
Pressure
1011.22 hPa